Overview Statistics Trail Chart Weather Telemetry Raw packets
 

This is the latest recevied weather packets stored in our database for station/object KD7DVD-1. If no packets are shown the sender has not sent any weather packets the latest 10 day(s).

<< 7 8 9 10 11 12 13 >>
Time Temp. Humidity Pressure Rain* Wind** Luminosity Snow
1788300016 20.56° C 70% 1009.4 hPa 0 mm - - -
1788298216 20.56° C 68% 1009.5 hPa 0 mm - - -
1788296416 21.11° C 67% 1009.7 hPa 0 mm - - -
1788294631 21.67° C 66% 1009.7 hPa 0 mm - - -
1788292816 21.11° C 67% 1009.7 hPa 0 mm - - -
1788291017 20.56° C 68% 1009.7 hPa 0 mm - - -
1788289216 20.56° C 71% 1010 hPa 0 mm - - -
1788287416 19.44° C 73% 1010 hPa 0 mm - - -
1788285621 18.89° C 76% 1009.9 hPa 0 mm - - -
1788283816 17.78° C 79% 1009.7 hPa 0 mm - - -
1788282021 17.22° C 81% 1009.9 hPa 0 mm - - -
1788280216 16.67° C 83% 1009.9 hPa 0 mm - - -
1788278415 16.11° C 85% 1010 hPa 0 mm - - -
1788276617 15.56° C 86% 1010.1 hPa 0 mm - - -
1788274817 15° C 88% 1010.2 hPa 0 mm - - -
1788273017 13.89° C 90% 1009.9 hPa 0 mm - - -
1788271222 13.33° C 90% 1009.7 hPa 0 mm - - -
1788269417 13.33° C 89% 1009.6 hPa 0 mm - - -
1788267617 13.33° C 88% 1009.3 hPa 0 mm - - -
1788265817 13.33° C 88% 1009.3 hPa 0 mm - - -
1788264026 13.33° C 88% 1009.1 hPa 0 mm - - -
1788262220 13.33° C 87% 1008.9 hPa 0 mm - - -
1788260417 13.89° C 85% 1008.8 hPa 0 mm - - -
1788258639 13.89° C 85% 1008.8 hPa 0 mm - - -
1788256817 13.89° C 85% 1008.7 hPa 0 mm - - -

* Rain latest hour (hover to see other rain measurements)
** Current wind speed in m/s (hover to see current wind gust speed)